sensor_id;sensor_type;location;lat;lon;timestamp;P1;durP1;ratioP1;P2;durP2;ratioP2
24223;SDS011;12359;49.716;9.212;2022-12-05T00:03:56;36.88;;;21.60;;
24223;SDS011;12359;49.716;9.212;2022-12-05T00:06:24;37.40;;;21.42;;
24223;SDS011;12359;49.716;9.212;2022-12-05T00:08:51;36.70;;;21.45;;
24223;SDS011;12359;49.716;9.212;2022-12-05T00:11:21;35.65;;;20.95;;
24223;SDS011;12359;49.716;9.212;2022-12-05T00:13:49;33.30;;;21.17;;
24223;SDS011;12359;49.716;9.212;2022-12-05T00:16:18;37.97;;;20.02;;
24223;SDS011;12359;49.716;9.212;2022-12-05T00:18:45;36.97;;;21.60;;
24223;SDS011;12359;49.716;9.212;2022-12-05T00:21:18;34.65;;;20.65;;
24223;SDS011;12359;49.716;9.212;2022-12-05T00:23:49;36.90;;;21.00;;
24223;SDS011;12359;49.716;9.212;2022-12-05T00:26:16;35.03;;;21.83;;
24223;SDS011;12359;49.716;9.212;2022-12-05T00:28:42;32.55;;;19.02;;
24223;SDS011;12359;49.716;9.212;2022-12-05T00:31:09;38.15;;;21.30;;
24223;SDS011;12359;49.716;9.212;2022-12-05T00:33:37;25.75;;;17.52;;
24223;SDS011;12359;49.716;9.212;2022-12-05T00:36:04;31.83;;;18.85;;
24223;SDS011;12359;49.716;9.212;2022-12-05T00:38:31;32.55;;;21.00;;
24223;SDS011;12359;49.716;9.212;2022-12-05T00:41:01;43.33;;;23.48;;
24223;SDS011;12359;49.716;9.212;2022-12-05T00:43:31;37.65;;;21.45;;
24223;SDS011;12359;49.716;9.212;2022-12-05T00:46:03;36.28;;;22.30;;
24223;SDS011;12359;49.716;9.212;2022-12-05T00:48:33;39.63;;;22.77;;
24223;SDS011;12359;49.716;9.212;2022-12-05T00:51:00;31.83;;;20.00;;
24223;SDS011;12359;49.716;9.212;2022-12-05T00:53:27;39.08;;;21.15;;
24223;SDS011;12359;49.716;9.212;2022-12-05T00:55:53;32.83;;;21.00;;
24223;SDS011;12359;49.716;9.212;2022-12-05T00:58:19;37.25;;;21.65;;
24223;SDS011;12359;49.716;9.212;2022-12-05T01:00:44;33.55;;;20.25;;
24223;SDS011;12359;49.716;9.212;2022-12-05T01:03:10;38.75;;;20.05;;
24223;SDS011;12359;49.716;9.212;2022-12-05T01:05:36;35.83;;;19.95;;
24223;SDS011;12359;49.716;9.212;2022-12-05T01:08:01;34.53;;;20.25;;
24223;SDS011;12359;49.716;9.212;2022-12-05T01:10:27;38.00;;;20.48;;
24223;SDS011;12359;49.716;9.212;2022-12-05T01:12:53;33.53;;;20.63;;
24223;SDS011;12359;49.716;9.212;2022-12-05T01:15:18;31.55;;;20.85;;
24223;SDS011;12359;49.716;9.212;2022-12-05T01:17:44;36.47;;;22.13;;
24223;SDS011;12359;49.716;9.212;2022-12-05T01:20:10;37.80;;;18.88;;
24223;SDS011;12359;49.716;9.212;2022-12-05T01:22:35;32.65;;;19.42;;
24223;SDS011;12359;49.716;9.212;2022-12-05T01:25:01;31.25;;;17.80;;
24223;SDS011;12359;49.716;9.212;2022-12-05T01:27:27;33.00;;;22.63;;
24223;SDS011;12359;49.716;9.212;2022-12-05T01:29:52;36.03;;;20.15;;
24223;SDS011;12359;49.716;9.212;2022-12-05T01:32:18;35.33;;;21.98;;
24223;SDS011;12359;49.716;9.212;2022-12-05T01:34:44;38.05;;;19.42;;
24223;SDS011;12359;49.716;9.212;2022-12-05T01:37:09;38.67;;;20.00;;
24223;SDS011;12359;49.716;9.212;2022-12-05T01:39:35;36.10;;;19.13;;
24223;SDS011;12359;49.716;9.212;2022-12-05T01:42:01;38.72;;;19.60;;
24223;SDS011;12359;49.716;9.212;2022-12-05T01:46:54;33.70;;;20.58;;
24223;SDS011;12359;49.716;9.212;2022-12-05T01:51:57;34.25;;;19.48;;
24223;SDS011;12359;49.716;9.212;2022-12-05T01:54:25;33.95;;;19.90;;
24223;SDS011;12359;49.716;9.212;2022-12-05T01:56:59;37.63;;;21.20;;
24223;SDS011;12359;49.716;9.212;2022-12-05T01:59:28;37.45;;;21.15;;
24223;SDS011;12359;49.716;9.212;2022-12-05T02:01:57;40.90;;;21.30;;
24223;SDS011;12359;49.716;9.212;2022-12-05T02:04:23;41.38;;;20.52;;
24223;SDS011;12359;49.716;9.212;2022-12-05T02:06:51;37.22;;;22.42;;
24223;SDS011;12359;49.716;9.212;2022-12-05T02:09:17;38.92;;;21.55;;
24223;SDS011;12359;49.716;9.212;2022-12-05T02:11:49;40.42;;;22.38;;
24223;SDS011;12359;49.716;9.212;2022-12-05T02:40:41;41.70;;;20.50;;
24223;SDS011;12359;49.716;9.212;2022-12-05T02:43:19;42.80;;;20.45;;
24223;SDS011;12359;49.716;9.212;2022-12-05T02:45:54;40.97;;;22.38;;
24223;SDS011;12359;49.716;9.212;2022-12-05T02:48:25;41.30;;;21.35;;
24223;SDS011;12359;49.716;9.212;2022-12-05T02:50:52;35.47;;;21.45;;
24223;SDS011;12359;49.716;9.212;2022-12-05T02:53:22;41.15;;;21.48;;
24223;SDS011;12359;49.716;9.212;2022-12-05T02:55:50;36.65;;;20.45;;
24223;SDS011;12359;49.716;9.212;2022-12-05T02:58:18;34.15;;;19.52;;
24223;SDS011;12359;49.716;9.212;2022-12-05T03:00:49;39.30;;;20.27;;
24223;SDS011;12359;49.716;9.212;2022-12-05T03:03:20;32.13;;;19.25;;
24223;SDS011;12359;49.716;9.212;2022-12-05T03:05:52;35.67;;;20.63;;
24223;SDS011;12359;49.716;9.212;2022-12-05T03:08:24;41.38;;;22.40;;
24223;SDS011;12359;49.716;9.212;2022-12-05T03:10:53;36.13;;;20.50;;
24223;SDS011;12359;49.716;9.212;2022-12-05T03:13:25;41.08;;;21.40;;
24223;SDS011;12359;49.716;9.212;2022-12-05T03:15:58;37.40;;;19.85;;
24223;SDS011;12359;49.716;9.212;2022-12-05T03:18:46;35.97;;;20.15;;
24223;SDS011;12359;49.716;9.212;2022-12-05T03:21:35;42.92;;;21.55;;
24223;SDS011;12359;49.716;9.212;2022-12-05T03:24:08;42.72;;;20.98;;
24223;SDS011;12359;49.716;9.212;2022-12-05T03:26:53;38.60;;;21.45;;
24223;SDS011;12359;49.716;9.212;2022-12-05T03:29:35;37.35;;;21.20;;
24223;SDS011;12359;49.716;9.212;2022-12-05T03:32:23;42.33;;;20.25;;
24223;SDS011;12359;49.716;9.212;2022-12-05T03:37:41;36.20;;;20.02;;
24223;SDS011;12359;49.716;9.212;2022-12-05T03:40:10;41.63;;;21.10;;
24223;SDS011;12359;49.716;9.212;2022-12-05T03:42:37;44.80;;;22.38;;
24223;SDS011;12359;49.716;9.212;2022-12-05T03:45:10;43.25;;;23.02;;
24223;SDS011;12359;49.716;9.212;2022-12-05T03:47:51;36.67;;;20.35;;
24223;SDS011;12359;49.716;9.212;2022-12-05T03:50:22;38.35;;;20.70;;
24223;SDS011;12359;49.716;9.212;2022-12-05T03:52:55;44.65;;;21.90;;
24223;SDS011;12359;49.716;9.212;2022-12-05T03:55:31;40.15;;;21.40;;
24223;SDS011;12359;49.716;9.212;2022-12-05T03:58:01;44.08;;;21.35;;
24223;SDS011;12359;49.716;9.212;2022-12-05T04:00:34;49.35;;;26.63;;
24223;SDS011;12359;49.716;9.212;2022-12-05T04:03:10;44.85;;;21.63;;
24223;SDS011;12359;49.716;9.212;2022-12-05T04:08:34;52.38;;;25.50;;
24223;SDS011;12359;49.716;9.212;2022-12-05T04:11:05;50.78;;;26.63;;
24223;SDS011;12359;49.716;9.212;2022-12-05T04:13:40;45.92;;;24.70;;
24223;SDS011;12359;49.716;9.212;2022-12-05T04:16:13;41.25;;;23.67;;
24223;SDS011;12359;49.716;9.212;2022-12-05T04:21:41;43.92;;;22.75;;
24223;SDS011;12359;49.716;9.212;2022-12-05T04:24:47;34.53;;;16.58;;
24223;SDS011;12359;49.716;9.212;2022-12-05T04:27:30;44.35;;;20.83;;
24223;SDS011;12359;49.716;9.212;2022-12-05T04:30:12;43.03;;;23.10;;
24223;SDS011;12359;49.716;9.212;2022-12-05T04:35:28;43.60;;;21.13;;
24223;SDS011;12359;49.716;9.212;2022-12-05T04:38:06;40.92;;;23.08;;
24223;SDS011;12359;49.716;9.212;2022-12-05T04:40:46;40.90;;;21.52;;
24223;SDS011;12359;49.716;9.212;2022-12-05T04:43:18;36.42;;;20.63;;
24223;SDS011;12359;49.716;9.212;2022-12-05T04:45:45;37.13;;;19.58;;
24223;SDS011;12359;49.716;9.212;2022-12-05T04:48:13;45.40;;;21.73;;
24223;SDS011;12359;49.716;9.212;2022-12-05T04:50:41;42.55;;;21.92;;
24223;SDS011;12359;49.716;9.212;2022-12-05T04:53:10;44.00;;;22.88;;
24223;SDS011;12359;49.716;9.212;2022-12-05T04:55:38;40.80;;;20.90;;
24223;SDS011;12359;49.716;9.212;2022-12-05T04:58:08;37.90;;;21.00;;
24223;SDS011;12359;49.716;9.212;2022-12-05T05:00:58;43.30;;;21.50;;
24223;SDS011;12359;49.716;9.212;2022-12-05T05:03:39;37.58;;;21.08;;
24223;SDS011;12359;49.716;9.212;2022-12-05T05:06:10;35.28;;;19.40;;
24223;SDS011;12359;49.716;9.212;2022-12-05T05:08:44;44.25;;;23.25;;
24223;SDS011;12359;49.716;9.212;2022-12-05T05:11:21;40.42;;;24.00;;
24223;SDS011;12359;49.716;9.212;2022-12-05T05:16:19;41.85;;;22.02;;
24223;SDS011;12359;49.716;9.212;2022-12-05T05:18:46;42.72;;;22.05;;
24223;SDS011;12359;49.716;9.212;2022-12-05T05:21:16;37.05;;;20.50;;
24223;SDS011;12359;49.716;9.212;2022-12-05T05:23:50;41.47;;;20.65;;
24223;SDS011;12359;49.716;9.212;2022-12-05T05:26:16;41.67;;;20.40;;
24223;SDS011;12359;49.716;9.212;2022-12-05T05:28:42;43.53;;;21.50;;
24223;SDS011;12359;49.716;9.212;2022-12-05T05:31:09;38.00;;;20.25;;
24223;SDS011;12359;49.716;9.212;2022-12-05T05:33:35;40.50;;;21.23;;
24223;SDS011;12359;49.716;9.212;2022-12-05T05:36:05;40.83;;;22.80;;
24223;SDS011;12359;49.716;9.212;2022-12-05T05:38:37;45.78;;;25.75;;
24223;SDS011;12359;49.716;9.212;2022-12-05T05:41:03;39.80;;;22.70;;
24223;SDS011;12359;49.716;9.212;2022-12-05T05:43:30;36.88;;;21.60;;
24223;SDS011;12359;49.716;9.212;2022-12-05T05:45:56;44.67;;;25.95;;
24223;SDS011;12359;49.716;9.212;2022-12-05T05:48:22;42.35;;;25.33;;
24223;SDS011;12359;49.716;9.212;2022-12-05T05:50:48;45.20;;;22.33;;
24223;SDS011;12359;49.716;9.212;2022-12-05T05:53:13;50.13;;;24.60;;
24223;SDS011;12359;49.716;9.212;2022-12-05T05:55:39;46.17;;;24.23;;
24223;SDS011;12359;49.716;9.212;2022-12-05T05:58:05;43.33;;;22.63;;
24223;SDS011;12359;49.716;9.212;2022-12-05T06:00:31;45.83;;;24.10;;
24223;SDS011;12359;49.716;9.212;2022-12-05T06:02:57;45.53;;;25.65;;
24223;SDS011;12359;49.716;9.212;2022-12-05T06:05:23;45.78;;;26.08;;
24223;SDS011;12359;49.716;9.212;2022-12-05T06:07:48;41.92;;;23.45;;
24223;SDS011;12359;49.716;9.212;2022-12-05T06:10:16;35.53;;;20.77;;
24223;SDS011;12359;49.716;9.212;2022-12-05T06:12:42;37.72;;;19.90;;
24223;SDS011;12359;49.716;9.212;2022-12-05T06:15:08;35.35;;;19.20;;
24223;SDS011;12359;49.716;9.212;2022-12-05T06:17:33;45.03;;;23.55;;
24223;SDS011;12359;49.716;9.212;2022-12-05T06:19:59;40.28;;;23.70;;
24223;SDS011;12359;49.716;9.212;2022-12-05T06:22:25;36.10;;;18.27;;
24223;SDS011;12359;49.716;9.212;2022-12-05T06:24:50;32.85;;;19.77;;
24223;SDS011;12359;49.716;9.212;2022-12-05T06:27:16;30.40;;;18.20;;
24223;SDS011;12359;49.716;9.212;2022-12-05T06:29:42;36.55;;;21.98;;
24223;SDS011;12359;49.716;9.212;2022-12-05T06:32:07;40.30;;;21.83;;
24223;SDS011;12359;49.716;9.212;2022-12-05T06:34:36;37.97;;;20.73;;
24223;SDS011;12359;49.716;9.212;2022-12-05T06:37:02;36.78;;;21.80;;
24223;SDS011;12359;49.716;9.212;2022-12-05T06:39:28;43.38;;;22.23;;
24223;SDS011;12359;49.716;9.212;2022-12-05T06:41:54;45.45;;;21.75;;
24223;SDS011;12359;49.716;9.212;2022-12-05T06:44:19;36.40;;;20.58;;
24223;SDS011;12359;49.716;9.212;2022-12-05T06:46:46;34.63;;;20.73;;
24223;SDS011;12359;49.716;9.212;2022-12-05T06:49:12;35.13;;;20.48;;
24223;SDS011;12359;49.716;9.212;2022-12-05T06:51:38;37.15;;;18.63;;
24223;SDS011;12359;49.716;9.212;2022-12-05T06:54:04;34.92;;;20.02;;
24223;SDS011;12359;49.716;9.212;2022-12-05T06:56:29;31.73;;;20.38;;
24223;SDS011;12359;49.716;9.212;2022-12-05T06:58:55;33.72;;;18.17;;
24223;SDS011;12359;49.716;9.212;2022-12-05T07:01:21;34.92;;;19.50;;
24223;SDS011;12359;49.716;9.212;2022-12-05T07:06:41;33.65;;;17.48;;
24223;SDS011;12359;49.716;9.212;2022-12-05T07:09:09;30.10;;;18.70;;
24223;SDS011;12359;49.716;9.212;2022-12-05T07:11:35;26.48;;;16.05;;
24223;SDS011;12359;49.716;9.212;2022-12-05T07:14:02;26.30;;;15.80;;
24223;SDS011;12359;49.716;9.212;2022-12-05T07:16:29;20.60;;;13.77;;
24223;SDS011;12359;49.716;9.212;2022-12-05T07:18:55;24.33;;;15.77;;
24223;SDS011;12359;49.716;9.212;2022-12-05T07:21:21;21.30;;;11.57;;
24223;SDS011;12359;49.716;9.212;2022-12-05T07:23:47;21.02;;;12.70;;
24223;SDS011;12359;49.716;9.212;2022-12-05T07:26:15;18.48;;;11.85;;
24223;SDS011;12359;49.716;9.212;2022-12-05T07:28:43;24.05;;;16.67;;
24223;SDS011;12359;49.716;9.212;2022-12-05T07:31:09;21.35;;;13.52;;
24223;SDS011;12359;49.716;9.212;2022-12-05T07:33:37;21.45;;;13.57;;
24223;SDS011;12359;49.716;9.212;2022-12-05T07:36:04;20.77;;;13.52;;
24223;SDS011;12359;49.716;9.212;2022-12-05T07:38:35;14.82;;;10.73;;
24223;SDS011;12359;49.716;9.212;2022-12-05T07:41:04;20.05;;;12.18;;
24223;SDS011;12359;49.716;9.212;2022-12-05T07:43:31;18.80;;;12.10;;
24223;SDS011;12359;49.716;9.212;2022-12-05T07:46:00;16.95;;;12.10;;
24223;SDS011;12359;49.716;9.212;2022-12-05T07:48:29;16.35;;;12.10;;
24223;SDS011;12359;49.716;9.212;2022-12-05T07:51:02;14.68;;;9.98;;
24223;SDS011;12359;49.716;9.212;2022-12-05T07:53:30;12.75;;;8.15;;
24223;SDS011;12359;49.716;9.212;2022-12-05T07:56:00;13.43;;;9.25;;
24223;SDS011;12359;49.716;9.212;2022-12-05T07:58:28;20.42;;;10.23;;
24223;SDS011;12359;49.716;9.212;2022-12-05T08:00:54;19.50;;;11.10;;
24223;SDS011;12359;49.716;9.212;2022-12-05T08:03:20;15.75;;;10.70;;
24223;SDS011;12359;49.716;9.212;2022-12-05T08:05:46;18.38;;;11.23;;
24223;SDS011;12359;49.716;9.212;2022-12-05T08:08:12;14.32;;;10.20;;
24223;SDS011;12359;49.716;9.212;2022-12-05T08:10:37;11.45;;;7.85;;
24223;SDS011;12359;49.716;9.212;2022-12-05T08:13:03;11.40;;;8.20;;
24223;SDS011;12359;49.716;9.212;2022-12-05T08:15:29;12.07;;;8.45;;
24223;SDS011;12359;49.716;9.212;2022-12-05T08:17:55;12.93;;;8.00;;
24223;SDS011;12359;49.716;9.212;2022-12-05T08:20:20;11.63;;;7.65;;
24223;SDS011;12359;49.716;9.212;2022-12-05T08:22:46;12.38;;;8.43;;
24223;SDS011;12359;49.716;9.212;2022-12-05T08:25:12;12.55;;;9.07;;
24223;SDS011;12359;49.716;9.212;2022-12-05T08:27:37;14.02;;;8.85;;
24223;SDS011;12359;49.716;9.212;2022-12-05T08:30:03;11.68;;;7.90;;
24223;SDS011;12359;49.716;9.212;2022-12-05T08:32:30;11.13;;;8.65;;
24223;SDS011;12359;49.716;9.212;2022-12-05T08:34:55;11.25;;;8.15;;
24223;SDS011;12359;49.716;9.212;2022-12-05T08:37:21;12.90;;;9.10;;
24223;SDS011;12359;49.716;9.212;2022-12-05T08:39:47;12.02;;;8.63;;
24223;SDS011;12359;49.716;9.212;2022-12-05T08:42:12;12.20;;;9.48;;
24223;SDS011;12359;49.716;9.212;2022-12-05T08:44:38;14.50;;;9.68;;
24223;SDS011;12359;49.716;9.212;2022-12-05T08:47:04;13.65;;;9.10;;
24223;SDS011;12359;49.716;9.212;2022-12-05T08:49:29;14.85;;;9.82;;
24223;SDS011;12359;49.716;9.212;2022-12-05T08:51:55;14.10;;;8.77;;
24223;SDS011;12359;49.716;9.212;2022-12-05T08:54:21;12.73;;;8.73;;
24223;SDS011;12359;49.716;9.212;2022-12-05T08:56:49;15.57;;;10.55;;
24223;SDS011;12359;49.716;9.212;2022-12-05T08:59:15;16.75;;;10.55;;
24223;SDS011;12359;49.716;9.212;2022-12-05T09:01:41;10.10;;;8.18;;
24223;SDS011;12359;49.716;9.212;2022-12-05T09:04:07;12.38;;;9.13;;
24223;SDS011;12359;49.716;9.212;2022-12-05T09:06:33;16.27;;;9.52;;
24223;SDS011;12359;49.716;9.212;2022-12-05T09:09:00;17.05;;;9.48;;
24223;SDS011;12359;49.716;9.212;2022-12-05T09:11:30;14.10;;;10.35;;
24223;SDS011;12359;49.716;9.212;2022-12-05T09:13:58;17.38;;;10.27;;
24223;SDS011;12359;49.716;9.212;2022-12-05T09:16:43;15.25;;;10.18;;
24223;SDS011;12359;49.716;9.212;2022-12-05T09:19:12;15.57;;;10.90;;
24223;SDS011;12359;49.716;9.212;2022-12-05T09:21:39;14.63;;;9.98;;
24223;SDS011;12359;49.716;9.212;2022-12-05T09:24:08;16.15;;;10.63;;
24223;SDS011;12359;49.716;9.212;2022-12-05T09:26:35;15.88;;;10.95;;
24223;SDS011;12359;49.716;9.212;2022-12-05T09:29:01;14.95;;;10.85;;
24223;SDS011;12359;49.716;9.212;2022-12-05T09:31:27;16.08;;;11.15;;
24223;SDS011;12359;49.716;9.212;2022-12-05T09:33:54;20.15;;;11.68;;
24223;SDS011;12359;49.716;9.212;2022-12-05T09:36:21;13.95;;;10.30;;
24223;SDS011;12359;49.716;9.212;2022-12-05T09:38:48;12.93;;;10.05;;
24223;SDS011;12359;49.716;9.212;2022-12-05T09:46:58;12.13;;;8.73;;
24223;SDS011;12359;49.716;9.212;2022-12-05T09:49:28;13.30;;;9.40;;
24223;SDS011;12359;49.716;9.212;2022-12-05T09:51:55;14.25;;;10.13;;
24223;SDS011;12359;49.716;9.212;2022-12-05T09:54:23;12.38;;;9.45;;
24223;SDS011;12359;49.716;9.212;2022-12-05T09:56:49;19.23;;;10.77;;
24223;SDS011;12359;49.716;9.212;2022-12-05T09:59:17;15.23;;;10.52;;
24223;SDS011;12359;49.716;9.212;2022-12-05T10:04:48;14.20;;;9.98;;
24223;SDS011;12359;49.716;9.212;2022-12-05T10:20:35;18.95;;;13.30;;
24223;SDS011;12359;49.716;9.212;2022-12-05T10:23:11;16.33;;;11.40;;
24223;SDS011;12359;49.716;9.212;2022-12-05T10:25:42;26.27;;;13.52;;
24223;SDS011;12359;49.716;9.212;2022-12-05T10:28:14;17.52;;;12.23;;
24223;SDS011;12359;49.716;9.212;2022-12-05T10:30:51;17.52;;;12.55;;
24223;SDS011;12359;49.716;9.212;2022-12-05T10:33:24;22.70;;;11.43;;
24223;SDS011;12359;49.716;9.212;2022-12-05T10:35:57;19.67;;;11.98;;
24223;SDS011;12359;49.716;9.212;2022-12-05T10:38:29;16.27;;;10.98;;
24223;SDS011;12359;49.716;9.212;2022-12-05T10:40:59;17.85;;;12.32;;
24223;SDS011;12359;49.716;9.212;2022-12-05T10:43:30;17.92;;;11.18;;
24223;SDS011;12359;49.716;9.212;2022-12-05T10:45:57;17.55;;;12.35;;
24223;SDS011;12359;49.716;9.212;2022-12-05T10:48:23;19.52;;;12.18;;
24223;SDS011;12359;49.716;9.212;2022-12-05T10:50:51;16.35;;;12.18;;
24223;SDS011;12359;49.716;9.212;2022-12-05T10:53:21;15.13;;;10.80;;
24223;SDS011;12359;49.716;9.212;2022-12-05T10:55:50;19.35;;;11.75;;
24223;SDS011;12359;49.716;9.212;2022-12-05T10:58:23;16.15;;;11.70;;
24223;SDS011;12359;49.716;9.212;2022-12-05T11:00:58;16.85;;;14.40;;
24223;SDS011;12359;49.716;9.212;2022-12-05T11:03:36;15.90;;;11.57;;
24223;SDS011;12359;49.716;9.212;2022-12-05T11:08:43;15.45;;;11.02;;
24223;SDS011;12359;49.716;9.212;2022-12-05T11:13:55;15.77;;;11.80;;
24223;SDS011;12359;49.716;9.212;2022-12-05T11:16:30;16.58;;;10.55;;
24223;SDS011;12359;49.716;9.212;2022-12-05T11:21:48;19.65;;;13.68;;
24223;SDS011;12359;49.716;9.212;2022-12-05T11:24:19;18.73;;;12.35;;
24223;SDS011;12359;49.716;9.212;2022-12-05T11:26:46;15.60;;;9.57;;
24223;SDS011;12359;49.716;9.212;2022-12-05T11:32:39;12.30;;;10.63;;
24223;SDS011;12359;49.716;9.212;2022-12-05T11:37:43;15.90;;;10.00;;
24223;SDS011;12359;49.716;9.212;2022-12-05T11:45:55;19.10;;;11.88;;
24223;SDS011;12359;49.716;9.212;2022-12-05T11:51:41;19.08;;;11.15;;
24223;SDS011;12359;49.716;9.212;2022-12-05T12:00:21;19.85;;;13.57;;
24223;SDS011;12359;49.716;9.212;2022-12-05T12:28:00;17.20;;;10.73;;
24223;SDS011;12359;49.716;9.212;2022-12-05T12:38:54;13.68;;;9.63;;
24223;SDS011;12359;49.716;9.212;2022-12-05T12:47:20;15.15;;;9.60;;
24223;SDS011;12359;49.716;9.212;2022-12-05T12:50:12;17.88;;;9.95;;
24223;SDS011;12359;49.716;9.212;2022-12-05T12:55:37;10.95;;;8.13;;
24223;SDS011;12359;49.716;9.212;2022-12-05T13:01:24;12.20;;;7.82;;
24223;SDS011;12359;49.716;9.212;2022-12-05T13:04:08;17.40;;;10.65;;
24223;SDS011;12359;49.716;9.212;2022-12-05T13:12:12;13.07;;;8.07;;
24223;SDS011;12359;49.716;9.212;2022-12-05T13:14:43;9.90;;;8.10;;
24223;SDS011;12359;49.716;9.212;2022-12-05T13:17:15;10.18;;;7.80;;
24223;SDS011;12359;49.716;9.212;2022-12-05T13:19:48;11.90;;;9.05;;
24223;SDS011;12359;49.716;9.212;2022-12-05T13:22:16;13.60;;;8.98;;
24223;SDS011;12359;49.716;9.212;2022-12-05T13:24:44;13.50;;;10.02;;
24223;SDS011;12359;49.716;9.212;2022-12-05T13:27:14;13.68;;;8.98;;
24223;SDS011;12359;49.716;9.212;2022-12-05T13:29:49;15.00;;;9.30;;
24223;SDS011;12359;49.716;9.212;2022-12-05T13:34:48;14.50;;;8.80;;
24223;SDS011;12359;49.716;9.212;2022-12-05T13:40:02;12.50;;;8.32;;
24223;SDS011;12359;49.716;9.212;2022-12-05T13:42:47;10.55;;;7.70;;
24223;SDS011;12359;49.716;9.212;2022-12-05T13:45:23;13.25;;;9.00;;
24223;SDS011;12359;49.716;9.212;2022-12-05T13:47:54;10.18;;;8.75;;
24223;SDS011;12359;49.716;9.212;2022-12-05T13:53:02;14.13;;;9.27;;
24223;SDS011;12359;49.716;9.212;2022-12-05T13:55:53;10.50;;;7.78;;
24223;SDS011;12359;49.716;9.212;2022-12-05T14:00:50;10.30;;;7.57;;
24223;SDS011;12359;49.716;9.212;2022-12-05T14:06:05;13.15;;;9.02;;
24223;SDS011;12359;49.716;9.212;2022-12-05T14:16:36;15.02;;;9.85;;
24223;SDS011;12359;49.716;9.212;2022-12-05T14:19:19;13.55;;;9.25;;
24223;SDS011;12359;49.716;9.212;2022-12-05T14:24:56;12.45;;;9.90;;
24223;SDS011;12359;49.716;9.212;2022-12-05T14:30:27;14.43;;;9.30;;
24223;SDS011;12359;49.716;9.212;2022-12-05T14:33:16;16.92;;;11.35;;
24223;SDS011;12359;49.716;9.212;2022-12-05T14:35:49;16.45;;;10.63;;
24223;SDS011;12359;49.716;9.212;2022-12-05T14:38:26;18.90;;;11.20;;
24223;SDS011;12359;49.716;9.212;2022-12-05T14:40:54;14.45;;;9.23;;
24223;SDS011;12359;49.716;9.212;2022-12-05T14:43:30;15.20;;;10.60;;
24223;SDS011;12359;49.716;9.212;2022-12-05T14:45:59;12.77;;;8.88;;
24223;SDS011;12359;49.716;9.212;2022-12-05T14:48:29;12.63;;;8.77;;
24223;SDS011;12359;49.716;9.212;2022-12-05T14:50:57;14.10;;;9.60;;
24223;SDS011;12359;49.716;9.212;2022-12-05T15:01:05;11.73;;;8.63;;
24223;SDS011;12359;49.716;9.212;2022-12-05T15:03:35;14.18;;;9.75;;
24223;SDS011;12359;49.716;9.212;2022-12-05T15:06:04;15.80;;;9.13;;
24223;SDS011;12359;49.716;9.212;2022-12-05T15:08:40;14.93;;;8.07;;
24223;SDS011;12359;49.716;9.212;2022-12-05T15:11:17;14.93;;;10.23;;
24223;SDS011;12359;49.716;9.212;2022-12-05T15:13:54;14.88;;;8.80;;
24223;SDS011;12359;49.716;9.212;2022-12-05T15:16:26;13.93;;;7.75;;
24223;SDS011;12359;49.716;9.212;2022-12-05T15:18:56;14.60;;;8.45;;
24223;SDS011;12359;49.716;9.212;2022-12-05T15:21:37;17.50;;;8.55;;
24223;SDS011;12359;49.716;9.212;2022-12-05T15:24:13;12.40;;;8.10;;
24223;SDS011;12359;49.716;9.212;2022-12-05T15:26:46;12.35;;;7.75;;
24223;SDS011;12359;49.716;9.212;2022-12-05T15:29:23;12.45;;;8.25;;
24223;SDS011;12359;49.716;9.212;2022-12-05T15:34:38;9.73;;;6.15;;
24223;SDS011;12359;49.716;9.212;2022-12-05T15:37:43;14.55;;;7.55;;
24223;SDS011;12359;49.716;9.212;2022-12-05T15:40:32;7.90;;;6.63;;
24223;SDS011;12359;49.716;9.212;2022-12-05T15:43:01;13.00;;;7.07;;
24223;SDS011;12359;49.716;9.212;2022-12-05T15:46:05;10.40;;;7.13;;
24223;SDS011;12359;49.716;9.212;2022-12-05T15:48:44;9.05;;;7.30;;
24223;SDS011;12359;49.716;9.212;2022-12-05T15:51:10;9.77;;;7.13;;
24223;SDS011;12359;49.716;9.212;2022-12-05T15:53:37;12.05;;;8.13;;
24223;SDS011;12359;49.716;9.212;2022-12-05T15:58:43;12.23;;;8.45;;
24223;SDS011;12359;49.716;9.212;2022-12-05T16:01:24;12.88;;;7.75;;
24223;SDS011;12359;49.716;9.212;2022-12-05T16:06:35;20.92;;;10.93;;
24223;SDS011;12359;49.716;9.212;2022-12-05T16:09:17;22.70;;;11.25;;
24223;SDS011;12359;49.716;9.212;2022-12-05T16:11:49;13.48;;;10.60;;
24223;SDS011;12359;49.716;9.212;2022-12-05T16:14:28;15.52;;;11.55;;
24223;SDS011;12359;49.716;9.212;2022-12-05T16:16:56;15.00;;;11.38;;
24223;SDS011;12359;49.716;9.212;2022-12-05T16:19:24;15.75;;;10.57;;
24223;SDS011;12359;49.716;9.212;2022-12-05T16:24:39;11.23;;;8.65;;
24223;SDS011;12359;49.716;9.212;2022-12-05T16:32:35;11.63;;;7.43;;
24223;SDS011;12359;49.716;9.212;2022-12-05T16:35:01;13.32;;;7.78;;
24223;SDS011;12359;49.716;9.212;2022-12-05T16:37:28;10.88;;;8.45;;
24223;SDS011;12359;49.716;9.212;2022-12-05T16:39:54;12.18;;;7.50;;
24223;SDS011;12359;49.716;9.212;2022-12-05T16:42:24;14.23;;;8.50;;
24223;SDS011;12359;49.716;9.212;2022-12-05T16:44:53;11.52;;;8.25;;
24223;SDS011;12359;49.716;9.212;2022-12-05T16:47:26;8.73;;;5.90;;
24223;SDS011;12359;49.716;9.212;2022-12-05T16:50:33;7.43;;;5.97;;
24223;SDS011;12359;49.716;9.212;2022-12-05T16:53:10;6.97;;;6.20;;
24223;SDS011;12359;49.716;9.212;2022-12-05T16:55:38;8.40;;;5.40;;
24223;SDS011;12359;49.716;9.212;2022-12-05T16:58:07;7.63;;;5.10;;
24223;SDS011;12359;49.716;9.212;2022-12-05T17:00:44;8.25;;;5.53;;
24223;SDS011;12359;49.716;9.212;2022-12-05T17:03:11;7.72;;;5.47;;
24223;SDS011;12359;49.716;9.212;2022-12-05T17:05:37;7.97;;;5.25;;
24223;SDS011;12359;49.716;9.212;2022-12-05T17:08:03;7.97;;;5.95;;
24223;SDS011;12359;49.716;9.212;2022-12-05T17:10:31;6.95;;;4.93;;
24223;SDS011;12359;49.716;9.212;2022-12-05T17:12:57;7.85;;;5.65;;
24223;SDS011;12359;49.716;9.212;2022-12-05T17:15:27;5.55;;;4.63;;
24223;SDS011;12359;49.716;9.212;2022-12-05T17:17:53;6.93;;;6.22;;
24223;SDS011;12359;49.716;9.212;2022-12-05T17:20:19;7.65;;;6.18;;
24223;SDS011;12359;49.716;9.212;2022-12-05T17:22:44;7.10;;;5.28;;
24223;SDS011;12359;49.716;9.212;2022-12-05T17:25:17;6.22;;;5.28;;
24223;SDS011;12359;49.716;9.212;2022-12-05T17:27:51;7.10;;;5.47;;
24223;SDS011;12359;49.716;9.212;2022-12-05T17:30:16;6.22;;;5.07;;
24223;SDS011;12359;49.716;9.212;2022-12-05T17:32:42;5.63;;;4.95;;
24223;SDS011;12359;49.716;9.212;2022-12-05T17:35:14;6.65;;;5.30;;
24223;SDS011;12359;49.716;9.212;2022-12-05T17:37:41;6.97;;;5.32;;
24223;SDS011;12359;49.716;9.212;2022-12-05T17:40:07;5.25;;;4.75;;
24223;SDS011;12359;49.716;9.212;2022-12-05T17:42:33;7.18;;;5.30;;
24223;SDS011;12359;49.716;9.212;2022-12-05T17:44:59;6.75;;;6.05;;
24223;SDS011;12359;49.716;9.212;2022-12-05T17:47:25;9.88;;;7.20;;
24223;SDS011;12359;49.716;9.212;2022-12-05T17:49:50;6.28;;;5.38;;
24223;SDS011;12359;49.716;9.212;2022-12-05T17:52:16;6.63;;;5.47;;
24223;SDS011;12359;49.716;9.212;2022-12-05T17:54:42;10.15;;;6.28;;
24223;SDS011;12359;49.716;9.212;2022-12-05T17:57:07;5.63;;;4.85;;
24223;SDS011;12359;49.716;9.212;2022-12-05T17:59:33;11.20;;;7.70;;
24223;SDS011;12359;49.716;9.212;2022-12-05T18:01:59;14.00;;;9.80;;
24223;SDS011;12359;49.716;9.212;2022-12-05T18:04:24;11.35;;;10.10;;
24223;SDS011;12359;49.716;9.212;2022-12-05T18:06:50;10.65;;;8.70;;
24223;SDS011;12359;49.716;9.212;2022-12-05T18:09:16;12.45;;;9.48;;